Hershey Heights, Pennsylvania
Current Conditions -  °F | °C
As of 7:17 AM on Monday 24 Nov 2014 (Local Time) from KTHV Reporting Station
Few Clouds Few Clouds  
Wind Chill: 64°   Ceiling: Unl
Heat Index: 64°   Visibility: 10mi
Dew Point: 59°   Wind: 7mph
Humidity: 84%   Direction: 190°S
Pressure: 29.61"   Gusts: NA
Location:  39.7863°N, 76.988°W
Report Text: KTHV 241217Z AUTO 19006KT 10SM FEW019 18/15 A2961 RMK AO2 T01780150
Loading
Personal Weather Stations






























Interactive Weather Map New forecast layout! Learn more

10-Day Weather Forecast

Advertisements
Track Severe Weather on mobile